sensor_id;sensor_type;location;lat;lon;timestamp;temperature;humidity
37806;DHT22;25082;50.870;0.022;2023-09-19T00:01:15;20.60;75.60
37806;DHT22;25082;50.870;0.022;2023-09-19T00:03:45;20.60;75.60
37806;DHT22;25082;50.870;0.022;2023-09-19T00:06:11;20.60;75.60
37806;DHT22;25082;50.870;0.022;2023-09-19T00:08:38;20.60;75.60
37806;DHT22;25082;50.870;0.022;2023-09-19T00:11:04;20.60;75.60
37806;DHT22;25082;50.870;0.022;2023-09-19T00:13:32;20.60;75.60
37806;DHT22;25082;50.870;0.022;2023-09-19T00:15:59;20.60;75.60
37806;DHT22;25082;50.870;0.022;2023-09-19T00:18:25;20.60;75.50
37806;DHT22;25082;50.870;0.022;2023-09-19T00:21:01;20.60;75.50
37806;DHT22;25082;50.870;0.022;2023-09-19T00:23:27;20.60;75.50
37806;DHT22;25082;50.870;0.022;2023-09-19T00:25:53;20.60;75.50
37806;DHT22;25082;50.870;0.022;2023-09-19T00:28:23;20.60;75.50
37806;DHT22;25082;50.870;0.022;2023-09-19T00:30:49;20.60;75.50
37806;DHT22;25082;50.870;0.022;2023-09-19T00:33:20;20.60;75.50
37806;DHT22;25082;50.870;0.022;2023-09-19T00:35:50;20.60;75.50
37806;DHT22;25082;50.870;0.022;2023-09-19T00:38:17;20.60;75.50
37806;DHT22;25082;50.870;0.022;2023-09-19T00:40:47;20.60;75.50
37806;DHT22;25082;50.870;0.022;2023-09-19T00:43:12;20.60;75.50
37806;DHT22;25082;50.870;0.022;2023-09-19T00:45:39;20.60;75.50
37806;DHT22;25082;50.870;0.022;2023-09-19T00:48:08;20.60;75.40
37806;DHT22;25082;50.870;0.022;2023-09-19T00:50:35;20.50;75.40
37806;DHT22;25082;50.870;0.022;2023-09-19T00:53:02;20.60;75.50
37806;DHT22;25082;50.870;0.022;2023-09-19T00:55:35;20.50;75.40
37806;DHT22;25082;50.870;0.022;2023-09-19T00:58:03;20.60;75.50
37806;DHT22;25082;50.870;0.022;2023-09-19T01:00:29;20.50;75.50
37806;DHT22;25082;50.870;0.022;2023-09-19T01:02:54;20.50;75.30
37806;DHT22;25082;50.870;0.022;2023-09-19T01:05:21;20.50;75.40
37806;DHT22;25082;50.870;0.022;2023-09-19T01:07:47;20.50;75.50
37806;DHT22;25082;50.870;0.022;2023-09-19T01:10:18;20.50;75.40
37806;DHT22;25082;50.870;0.022;2023-09-19T01:15:40;20.50;75.50
37806;DHT22;25082;50.870;0.022;2023-09-19T01:18:24;20.50;75.40
37806;DHT22;25082;50.870;0.022;2023-09-19T01:29:46;20.50;75.50
37806;DHT22;25082;50.870;0.022;2023-09-19T01:32:21;20.50;75.50
37806;DHT22;25082;50.870;0.022;2023-09-19T01:34:52;20.50;75.50
37806;DHT22;25082;50.870;0.022;2023-09-19T01:37:21;20.50;75.50
37806;DHT22;25082;50.870;0.022;2023-09-19T01:39:54;20.50;75.50
37806;DHT22;25082;50.870;0.022;2023-09-19T01:47:39;20.50;75.40
37806;DHT22;25082;50.870;0.022;2023-09-19T01:53:02;20.50;75.40
37806;DHT22;25082;50.870;0.022;2023-09-19T01:55:30;20.50;75.50
37806;DHT22;25082;50.870;0.022;2023-09-19T01:58:08;20.50;75.30
37806;DHT22;25082;50.870;0.022;2023-09-19T02:00:41;20.50;75.30
37806;DHT22;25082;50.870;0.022;2023-09-19T02:03:09;20.40;75.20
37806;DHT22;25082;50.870;0.022;2023-09-19T02:05:35;20.50;75.40
37806;DHT22;25082;50.870;0.022;2023-09-19T02:08:01;20.40;75.30
37806;DHT22;25082;50.870;0.022;2023-09-19T02:10:27;20.40;75.40
37806;DHT22;25082;50.870;0.022;2023-09-19T02:12:52;20.40;76.00
37806;DHT22;25082;50.870;0.022;2023-09-19T02:15:18;20.50;75.40
37806;DHT22;25082;50.870;0.022;2023-09-19T02:17:44;20.40;75.40
37806;DHT22;25082;50.870;0.022;2023-09-19T02:20:12;20.40;75.40
37806;DHT22;25082;50.870;0.022;2023-09-19T02:22:38;20.50;75.40
37806;DHT22;25082;50.870;0.022;2023-09-19T02:25:05;20.40;75.30
37806;DHT22;25082;50.870;0.022;2023-09-19T02:27:30;20.40;75.20
37806;DHT22;25082;50.870;0.022;2023-09-19T02:29:56;20.40;75.20
37806;DHT22;25082;50.870;0.022;2023-09-19T02:32:23;20.40;75.20
37806;DHT22;25082;50.870;0.022;2023-09-19T02:34:48;20.40;75.20
37806;DHT22;25082;50.870;0.022;2023-09-19T02:37:17;20.40;75.20
37806;DHT22;25082;50.870;0.022;2023-09-19T02:39:45;20.40;75.20
37806;DHT22;25082;50.870;0.022;2023-09-19T02:42:10;20.40;75.30
37806;DHT22;25082;50.870;0.022;2023-09-19T02:44:36;20.40;75.30
37806;DHT22;25082;50.870;0.022;2023-09-19T02:47:03;20.40;75.30
37806;DHT22;25082;50.870;0.022;2023-09-19T02:49:29;20.40;75.30
37806;DHT22;25082;50.870;0.022;2023-09-19T02:51:55;20.40;75.30
37806;DHT22;25082;50.870;0.022;2023-09-19T02:54:21;20.40;75.30
37806;DHT22;25082;50.870;0.022;2023-09-19T02:56:47;20.40;75.30
37806;DHT22;25082;50.870;0.022;2023-09-19T02:59:13;20.40;75.40
37806;DHT22;25082;50.870;0.022;2023-09-19T03:01:40;20.40;75.40
37806;DHT22;25082;50.870;0.022;2023-09-19T03:04:08;20.40;75.40
37806;DHT22;25082;50.870;0.022;2023-09-19T03:06:39;20.40;75.40
37806;DHT22;25082;50.870;0.022;2023-09-19T03:09:05;20.40;75.30
37806;DHT22;25082;50.870;0.022;2023-09-19T03:11:38;20.40;75.30
37806;DHT22;25082;50.870;0.022;2023-09-19T03:14:05;20.40;75.30
37806;DHT22;25082;50.870;0.022;2023-09-19T03:16:31;20.40;75.30
37806;DHT22;25082;50.870;0.022;2023-09-19T03:18:57;20.30;75.30
37806;DHT22;25082;50.870;0.022;2023-09-19T03:21:25;20.40;75.40
37806;DHT22;25082;50.870;0.022;2023-09-19T03:23:51;20.40;75.40
37806;DHT22;25082;50.870;0.022;2023-09-19T03:26:17;20.40;75.40
37806;DHT22;25082;50.870;0.022;2023-09-19T03:28:43;20.30;75.30
37806;DHT22;25082;50.870;0.022;2023-09-19T03:31:09;20.40;75.40
37806;DHT22;25082;50.870;0.022;2023-09-19T03:33:35;20.40;75.40
37806;DHT22;25082;50.870;0.022;2023-09-19T03:36:02;20.40;75.40
37806;DHT22;25082;50.870;0.022;2023-09-19T03:38:30;20.40;75.40
37806;DHT22;25082;50.870;0.022;2023-09-19T03:40:57;20.30;75.40
37806;DHT22;25082;50.870;0.022;2023-09-19T03:43:22;20.40;75.40
37806;DHT22;25082;50.870;0.022;2023-09-19T03:45:48;20.30;75.30
37806;DHT22;25082;50.870;0.022;2023-09-19T03:48:16;20.40;75.40
37806;DHT22;25082;50.870;0.022;2023-09-19T03:50:42;20.30;75.40
37806;DHT22;25082;50.870;0.022;2023-09-19T03:53:09;20.30;75.30
37806;DHT22;25082;50.870;0.022;2023-09-19T03:55:35;20.30;75.50
37806;DHT22;25082;50.870;0.022;2023-09-19T03:58:04;20.40;75.40
37806;DHT22;25082;50.870;0.022;2023-09-19T04:00:30;20.30;75.40
37806;DHT22;25082;50.870;0.022;2023-09-19T04:02:55;20.30;75.40
37806;DHT22;25082;50.870;0.022;2023-09-19T04:05:22;20.30;75.40
37806;DHT22;25082;50.870;0.022;2023-09-19T04:07:49;20.30;75.30
37806;DHT22;25082;50.870;0.022;2023-09-19T04:10:15;20.30;75.40
37806;DHT22;25082;50.870;0.022;2023-09-19T04:12:50;20.30;75.40
37806;DHT22;25082;50.870;0.022;2023-09-19T04:15:17;20.30;75.40
37806;DHT22;25082;50.870;0.022;2023-09-19T04:17:43;20.30;75.50
37806;DHT22;25082;50.870;0.022;2023-09-19T04:20:09;20.30;75.40
37806;DHT22;25082;50.870;0.022;2023-09-19T04:22:38;20.30;75.30
37806;DHT22;25082;50.870;0.022;2023-09-19T04:25:05;20.30;75.40
37806;DHT22;25082;50.870;0.022;2023-09-19T04:27:32;20.30;75.30
37806;DHT22;25082;50.870;0.022;2023-09-19T04:29:58;20.30;75.30
37806;DHT22;25082;50.870;0.022;2023-09-19T04:32:33;20.30;75.30
37806;DHT22;25082;50.870;0.022;2023-09-19T04:34:59;20.30;75.30
37806;DHT22;25082;50.870;0.022;2023-09-19T04:37:27;20.30;75.30
37806;DHT22;25082;50.870;0.022;2023-09-19T04:39:53;20.30;75.30
37806;DHT22;25082;50.870;0.022;2023-09-19T04:42:19;20.30;75.50
37806;DHT22;25082;50.870;0.022;2023-09-19T04:44:46;20.30;75.40
37806;DHT22;25082;50.870;0.022;2023-09-19T04:47:14;20.20;75.30
37806;DHT22;25082;50.870;0.022;2023-09-19T04:49:41;20.20;75.40
37806;DHT22;25082;50.870;0.022;2023-09-19T04:52:07;20.30;75.40
37806;DHT22;25082;50.870;0.022;2023-09-19T04:54:33;20.30;75.30
37806;DHT22;25082;50.870;0.022;2023-09-19T04:57:02;20.30;75.30
37806;DHT22;25082;50.870;0.022;2023-09-19T04:59:27;20.30;75.30
37806;DHT22;25082;50.870;0.022;2023-09-19T05:01:54;20.30;75.40
37806;DHT22;25082;50.870;0.022;2023-09-19T05:04:19;20.30;75.40
37806;DHT22;25082;50.870;0.022;2023-09-19T05:06:45;20.30;75.40
37806;DHT22;25082;50.870;0.022;2023-09-19T05:09:11;20.20;75.30
37806;DHT22;25082;50.870;0.022;2023-09-19T05:11:36;20.30;75.30
37806;DHT22;25082;50.870;0.022;2023-09-19T05:14:03;20.30;75.30
37806;DHT22;25082;50.870;0.022;2023-09-19T05:16:32;20.20;75.20
37806;DHT22;25082;50.870;0.022;2023-09-19T05:18:58;20.30;75.30
37806;DHT22;25082;50.870;0.022;2023-09-19T05:21:26;20.20;75.40
37806;DHT22;25082;50.870;0.022;2023-09-19T05:23:54;20.20;75.80
37806;DHT22;25082;50.870;0.022;2023-09-19T05:26:20;20.20;75.20
37806;DHT22;25082;50.870;0.022;2023-09-19T05:28:46;20.20;75.40
37806;DHT22;25082;50.870;0.022;2023-09-19T05:31:13;20.30;75.40
37806;DHT22;25082;50.870;0.022;2023-09-19T05:33:42;20.30;75.30
37806;DHT22;25082;50.870;0.022;2023-09-19T05:36:08;20.20;75.30
37806;DHT22;25082;50.870;0.022;2023-09-19T05:38:37;20.20;75.30
37806;DHT22;25082;50.870;0.022;2023-09-19T05:41:06;20.20;75.30
37806;DHT22;25082;50.870;0.022;2023-09-19T05:43:32;20.20;75.30
37806;DHT22;25082;50.870;0.022;2023-09-19T05:46:00;20.20;75.40
37806;DHT22;25082;50.870;0.022;2023-09-19T05:48:25;20.20;75.30
37806;DHT22;25082;50.870;0.022;2023-09-19T05:50:51;20.20;75.40
37806;DHT22;25082;50.870;0.022;2023-09-19T05:53:17;20.20;75.40
37806;DHT22;25082;50.870;0.022;2023-09-19T05:55:44;20.20;75.40
37806;DHT22;25082;50.870;0.022;2023-09-19T05:58:12;20.20;75.40
37806;DHT22;25082;50.870;0.022;2023-09-19T06:00:43;20.20;75.40
37806;DHT22;25082;50.870;0.022;2023-09-19T06:03:10;20.20;75.40
37806;DHT22;25082;50.870;0.022;2023-09-19T06:05:38;20.20;75.40
37806;DHT22;25082;50.870;0.022;2023-09-19T06:08:05;20.20;75.40
37806;DHT22;25082;50.870;0.022;2023-09-19T06:10:36;20.20;75.50
37806;DHT22;25082;50.870;0.022;2023-09-19T06:13:03;20.20;75.40
37806;DHT22;25082;50.870;0.022;2023-09-19T06:15:31;20.20;75.50
37806;DHT22;25082;50.870;0.022;2023-09-19T06:17:59;20.20;75.50
37806;DHT22;25082;50.870;0.022;2023-09-19T06:20:28;20.20;75.50
37806;DHT22;25082;50.870;0.022;2023-09-19T06:22:54;20.20;75.50
37806;DHT22;25082;50.870;0.022;2023-09-19T06:25:20;20.20;75.50
37806;DHT22;25082;50.870;0.022;2023-09-19T06:27:50;20.20;75.50
37806;DHT22;25082;50.870;0.022;2023-09-19T06:30:21;20.20;75.60
37806;DHT22;25082;50.870;0.022;2023-09-19T06:32:48;20.20;75.60
37806;DHT22;25082;50.870;0.022;2023-09-19T06:35:15;20.20;75.60
37806;DHT22;25082;50.870;0.022;2023-09-19T06:37:42;20.20;75.70
37806;DHT22;25082;50.870;0.022;2023-09-19T06:40:08;20.20;75.70
37806;DHT22;25082;50.870;0.022;2023-09-19T06:42:41;20.20;75.70
37806;DHT22;25082;50.870;0.022;2023-09-19T06:45:08;20.20;75.70
37806;DHT22;25082;50.870;0.022;2023-09-19T06:47:37;20.20;75.70
37806;DHT22;25082;50.870;0.022;2023-09-19T06:50:03;20.20;75.70
37806;DHT22;25082;50.870;0.022;2023-09-19T06:52:30;20.20;75.80
37806;DHT22;25082;50.870;0.022;2023-09-19T06:54:55;20.10;75.70
37806;DHT22;25082;50.870;0.022;2023-09-19T06:57:22;20.20;75.80
37806;DHT22;25082;50.870;0.022;2023-09-19T06:59:48;20.10;75.70
37806;DHT22;25082;50.870;0.022;2023-09-19T07:02:13;20.20;75.90
37806;DHT22;25082;50.870;0.022;2023-09-19T07:04:39;20.10;75.80
37806;DHT22;25082;50.870;0.022;2023-09-19T07:07:06;20.20;75.90
37806;DHT22;25082;50.870;0.022;2023-09-19T07:09:34;20.20;75.90
37806;DHT22;25082;50.870;0.022;2023-09-19T07:12:00;20.20;75.90
37806;DHT22;25082;50.870;0.022;2023-09-19T07:14:26;20.10;75.90
37806;DHT22;25082;50.870;0.022;2023-09-19T07:16:52;20.10;75.90
37806;DHT22;25082;50.870;0.022;2023-09-19T07:19:18;20.10;75.90
37806;DHT22;25082;50.870;0.022;2023-09-19T07:21:43;20.20;76.00
37806;DHT22;25082;50.870;0.022;2023-09-19T07:24:10;20.10;75.90
37806;DHT22;25082;50.870;0.022;2023-09-19T07:26:35;20.10;75.90
37806;DHT22;25082;50.870;0.022;2023-09-19T07:29:01;20.10;75.90
37806;DHT22;25082;50.870;0.022;2023-09-19T07:31:29;20.10;75.90
37806;DHT22;25082;50.870;0.022;2023-09-19T07:33:56;20.10;75.90
37806;DHT22;25082;50.870;0.022;2023-09-19T07:36:22;20.10;75.90
37806;DHT22;25082;50.870;0.022;2023-09-19T07:38:49;20.10;76.00
37806;DHT22;25082;50.870;0.022;2023-09-19T07:41:15;20.20;76.10
37806;DHT22;25082;50.870;0.022;2023-09-19T07:43:41;20.10;76.00
37806;DHT22;25082;50.870;0.022;2023-09-19T07:46:07;20.10;76.00
37806;DHT22;25082;50.870;0.022;2023-09-19T07:48:35;20.20;76.10
37806;DHT22;25082;50.870;0.022;2023-09-19T07:51:08;20.10;76.10
37806;DHT22;25082;50.870;0.022;2023-09-19T07:53:36;20.10;76.20
37806;DHT22;25082;50.870;0.022;2023-09-19T07:56:06;20.10;76.40
37806;DHT22;25082;50.870;0.022;2023-09-19T07:58:32;20.10;76.40
37806;DHT22;25082;50.870;0.022;2023-09-19T08:01:06;20.10;76.50
37806;DHT22;25082;50.870;0.022;2023-09-19T08:03:35;20.10;76.50
37806;DHT22;25082;50.870;0.022;2023-09-19T08:06:06;20.10;76.50
37806;DHT22;25082;50.870;0.022;2023-09-19T08:08:33;20.10;76.50
37806;DHT22;25082;50.870;0.022;2023-09-19T08:11:06;20.20;76.50
37806;DHT22;25082;50.870;0.022;2023-09-19T08:13:41;20.20;76.60
37806;DHT22;25082;50.870;0.022;2023-09-19T08:16:11;20.10;76.60
37806;DHT22;25082;50.870;0.022;2023-09-19T08:18:37;20.20;76.60
37806;DHT22;25082;50.870;0.022;2023-09-19T08:21:05;20.20;76.50
37806;DHT22;25082;50.870;0.022;2023-09-19T08:23:38;20.20;76.50
37806;DHT22;25082;50.870;0.022;2023-09-19T08:26:05;20.20;76.40
37806;DHT22;25082;50.870;0.022;2023-09-19T08:28:34;20.20;76.50
37806;DHT22;25082;50.870;0.022;2023-09-19T08:31:04;20.20;76.50
37806;DHT22;25082;50.870;0.022;2023-09-19T08:33:34;20.20;76.50
37806;DHT22;25082;50.870;0.022;2023-09-19T08:36:01;20.20;76.40
37806;DHT22;25082;50.870;0.022;2023-09-19T08:38:27;20.20;76.40
37806;DHT22;25082;50.870;0.022;2023-09-19T08:40:57;20.20;76.40
37806;DHT22;25082;50.870;0.022;2023-09-19T08:43:25;20.20;76.40
37806;DHT22;25082;50.870;0.022;2023-09-19T08:46:14;20.20;76.40
37806;DHT22;25082;50.870;0.022;2023-09-19T08:48:46;20.20;76.40
37806;DHT22;25082;50.870;0.022;2023-09-19T08:51:21;20.20;76.40
37806;DHT22;25082;50.870;0.022;2023-09-19T08:53:54;20.20;76.40
37806;DHT22;25082;50.870;0.022;2023-09-19T08:56:26;20.20;76.50
37806;DHT22;25082;50.870;0.022;2023-09-19T08:58:55;20.20;76.50
37806;DHT22;25082;50.870;0.022;2023-09-19T09:01:24;20.20;76.50
37806;DHT22;25082;50.870;0.022;2023-09-19T09:03:56;20.20;76.50
37806;DHT22;25082;50.870;0.022;2023-09-19T09:06:23;20.20;76.50
37806;DHT22;25082;50.870;0.022;2023-09-19T09:08:51;20.20;76.50
37806;DHT22;25082;50.870;0.022;2023-09-19T09:11:18;20.20;76.50
37806;DHT22;25082;50.870;0.022;2023-09-19T09:13:44;20.20;76.40
37806;DHT22;25082;50.870;0.022;2023-09-19T09:16:11;20.20;76.40
37806;DHT22;25082;50.870;0.022;2023-09-19T09:18:38;20.30;76.40
37806;DHT22;25082;50.870;0.022;2023-09-19T09:21:04;20.30;76.30
37806;DHT22;25082;50.870;0.022;2023-09-19T09:23:30;20.20;76.20
37806;DHT22;25082;50.870;0.022;2023-09-19T09:25:58;20.20;76.20
37806;DHT22;25082;50.870;0.022;2023-09-19T09:28:29;20.20;76.20
37806;DHT22;25082;50.870;0.022;2023-09-19T09:30:59;20.20;76.30
37806;DHT22;25082;50.870;0.022;2023-09-19T09:33:26;20.30;76.30
37806;DHT22;25082;50.870;0.022;2023-09-19T09:35:54;20.20;76.30
37806;DHT22;25082;50.870;0.022;2023-09-19T09:38:23;20.30;76.30
37806;DHT22;25082;50.870;0.022;2023-09-19T09:40:58;20.30;76.30
37806;DHT22;25082;50.870;0.022;2023-09-19T09:43:34;20.20;76.20
37806;DHT22;25082;50.870;0.022;2023-09-19T09:51:50;20.30;76.10
37806;DHT22;25082;50.870;0.022;2023-09-19T09:54:29;20.30;76.30
37806;DHT22;25082;50.870;0.022;2023-09-19T09:57:09;20.30;76.30
37806;DHT22;25082;50.870;0.022;2023-09-19T09:59:55;20.30;76.10
37806;DHT22;25082;50.870;0.022;2023-09-19T10:02:28;20.30;76.10
37806;DHT22;25082;50.870;0.022;2023-09-19T10:05:13;20.30;76.00
37806;DHT22;25082;50.870;0.022;2023-09-19T10:07:47;20.30;76.10
37806;DHT22;25082;50.870;0.022;2023-09-19T10:10:39;20.30;76.20
37806;DHT22;25082;50.870;0.022;2023-09-19T10:13:11;20.30;75.60
37806;DHT22;25082;50.870;0.022;2023-09-19T10:15:45;20.30;74.70
37806;DHT22;25082;50.870;0.022;2023-09-19T10:18:20;20.20;75.00
37806;DHT22;25082;50.870;0.022;2023-09-19T10:20:46;20.20;75.40
37806;DHT22;25082;50.870;0.022;2023-09-19T10:23:15;20.20;75.40
37806;DHT22;25082;50.870;0.022;2023-09-19T10:25:48;20.20;75.30
37806;DHT22;25082;50.870;0.022;2023-09-19T10:28:16;20.20;74.90
37806;DHT22;25082;50.870;0.022;2023-09-19T10:30:43;20.20;75.00
37806;DHT22;25082;50.870;0.022;2023-09-19T10:33:11;20.20;75.30
37806;DHT22;25082;50.870;0.022;2023-09-19T10:35:39;20.20;75.20
37806;DHT22;25082;50.870;0.022;2023-09-19T10:38:10;20.20;75.10
37806;DHT22;25082;50.870;0.022;2023-09-19T10:40:38;20.20;75.20
37806;DHT22;25082;50.870;0.022;2023-09-19T10:43:18;20.20;75.10
37806;DHT22;25082;50.870;0.022;2023-09-19T10:45:44;20.20;75.10
37806;DHT22;25082;50.870;0.022;2023-09-19T10:48:12;20.20;75.10
37806;DHT22;25082;50.870;0.022;2023-09-19T10:53:46;20.10;75.00
37806;DHT22;25082;50.870;0.022;2023-09-19T10:56:22;20.20;75.20
37806;DHT22;25082;50.870;0.022;2023-09-19T10:58:49;20.10;74.90
37806;DHT22;25082;50.870;0.022;2023-09-19T11:01:15;20.10;74.80
37806;DHT22;25082;50.870;0.022;2023-09-19T11:03:43;20.10;74.90
37806;DHT22;25082;50.870;0.022;2023-09-19T11:06:17;20.10;75.10
37806;DHT22;25082;50.870;0.022;2023-09-19T11:09:03;20.10;75.10
37806;DHT22;25082;50.870;0.022;2023-09-19T11:11:48;20.10;75.30
37806;DHT22;25082;50.870;0.022;2023-09-19T11:30:33;20.20;75.70
37806;DHT22;25082;50.870;0.022;2023-09-19T11:33:22;20.20;76.50
37806;DHT22;25082;50.870;0.022;2023-09-19T11:36:07;20.20;76.10
37806;DHT22;25082;50.870;0.022;2023-09-19T11:41:36;20.20;76.10
37806;DHT22;25082;50.870;0.022;2023-09-19T11:46:33;20.20;76.10
37806;DHT22;25082;50.870;0.022;2023-09-19T11:49:08;20.20;76.10
37806;DHT22;25082;50.870;0.022;2023-09-19T11:51:42;20.20;76.10
37806;DHT22;25082;50.870;0.022;2023-09-19T11:54:13;20.20;76.10
37806;DHT22;25082;50.870;0.022;2023-09-19T11:56:47;20.20;76.10
37806;DHT22;25082;50.870;0.022;2023-09-19T11:59:29;20.20;76.10
37806;DHT22;25082;50.870;0.022;2023-09-19T12:02:01;20.20;76.20
37806;DHT22;25082;50.870;0.022;2023-09-19T12:04:43;20.20;76.20
37806;DHT22;25082;50.870;0.022;2023-09-19T12:07:11;20.20;76.20
37806;DHT22;25082;50.870;0.022;2023-09-19T12:09:41;20.20;76.10
37806;DHT22;25082;50.870;0.022;2023-09-19T12:12:26;20.20;76.10
37806;DHT22;25082;50.870;0.022;2023-09-19T12:15:01;20.20;76.20
37806;DHT22;25082;50.870;0.022;2023-09-19T12:17:39;20.20;76.20
37806;DHT22;25082;50.870;0.022;2023-09-19T12:20:08;20.20;76.20
37806;DHT22;25082;50.870;0.022;2023-09-19T12:22:46;20.20;76.20
37806;DHT22;25082;50.870;0.022;2023-09-19T12:25:13;20.20;76.20
37806;DHT22;25082;50.870;0.022;2023-09-19T12:27:42;20.20;76.10
37806;DHT22;25082;50.870;0.022;2023-09-19T12:30:10;20.20;76.10
37806;DHT22;25082;50.870;0.022;2023-09-19T12:32:39;20.20;76.20
37806;DHT22;25082;50.870;0.022;2023-09-19T12:35:08;20.20;76.20
37806;DHT22;25082;50.870;0.022;2023-09-19T12:37:37;20.20;76.10
37806;DHT22;25082;50.870;0.022;2023-09-19T12:40:08;20.20;76.10
37806;DHT22;25082;50.870;0.022;2023-09-19T12:42:43;20.20;76.20
37806;DHT22;25082;50.870;0.022;2023-09-19T12:45:11;20.20;76.10
37806;DHT22;25082;50.870;0.022;2023-09-19T12:47:39;20.20;76.20
37806;DHT22;25082;50.870;0.022;2023-09-19T12:50:12;20.20;76.10
37806;DHT22;25082;50.870;0.022;2023-09-19T12:52:46;20.30;76.20
37806;DHT22;25082;50.870;0.022;2023-09-19T12:55:28;20.20;76.30
37806;DHT22;25082;50.870;0.022;2023-09-19T12:58:12;20.20;76.30
37806;DHT22;25082;50.870;0.022;2023-09-19T13:00:39;20.30;76.30
37806;DHT22;25082;50.870;0.022;2023-09-19T13:03:18;20.20;76.30
37806;DHT22;25082;50.870;0.022;2023-09-19T13:08:23;20.20;76.40
37806;DHT22;25082;50.870;0.022;2023-09-19T13:13:36;20.20;76.40
37806;DHT22;25082;50.870;0.022;2023-09-19T13:16:03;20.30;76.50
37806;DHT22;25082;50.870;0.022;2023-09-19T13:18:42;20.20;76.50
37806;DHT22;25082;50.870;0.022;2023-09-19T13:21:10;20.20;76.50
37806;DHT22;25082;50.870;0.022;2023-09-19T13:23:42;20.20;76.60
37806;DHT22;25082;50.870;0.022;2023-09-19T13:26:12;20.20;76.60
37806;DHT22;25082;50.870;0.022;2023-09-19T13:28:38;20.20;76.60
37806;DHT22;25082;50.870;0.022;2023-09-19T13:31:04;20.30;76.60
37806;DHT22;25082;50.870;0.022;2023-09-19T13:33:31;20.20;76.80
37806;DHT22;25082;50.870;0.022;2023-09-19T13:35:57;20.30;76.80
37806;DHT22;25082;50.870;0.022;2023-09-19T13:38:23;20.20;76.80
37806;DHT22;25082;50.870;0.022;2023-09-19T13:40:49;20.30;76.80
37806;DHT22;25082;50.870;0.022;2023-09-19T13:43:18;20.30;77.00
37806;DHT22;25082;50.870;0.022;2023-09-19T13:45:43;20.20;76.90
37806;DHT22;25082;50.870;0.022;2023-09-19T13:48:09;20.20;77.00
37806;DHT22;25082;50.870;0.022;2023-09-19T13:50:37;20.30;77.10
37806;DHT22;25082;50.870;0.022;2023-09-19T13:53:08;20.30;77.30
37806;DHT22;25082;50.870;0.022;2023-09-19T13:55:34;20.20;77.00
37806;DHT22;25082;50.870;0.022;2023-09-19T13:58:00;20.30;77.30
37806;DHT22;25082;50.870;0.022;2023-09-19T14:00:26;20.20;77.10
37806;DHT22;25082;50.870;0.022;2023-09-19T14:02:52;20.20;77.30
37806;DHT22;25082;50.870;0.022;2023-09-19T14:05:19;20.20;77.20
37806;DHT22;25082;50.870;0.022;2023-09-19T14:07:46;20.20;77.30
37806;DHT22;25082;50.870;0.022;2023-09-19T14:10:12;20.20;77.40
37806;DHT22;25082;50.870;0.022;2023-09-19T14:12:38;20.20;77.60
37806;DHT22;25082;50.870;0.022;2023-09-19T14:15:07;20.20;77.50
37806;DHT22;25082;50.870;0.022;2023-09-19T14:17:33;20.20;77.40
37806;DHT22;25082;50.870;0.022;2023-09-19T14:19:59;20.20;77.50
37806;DHT22;25082;50.870;0.022;2023-09-19T14:22:25;20.20;77.50
37806;DHT22;25082;50.870;0.022;2023-09-19T14:24:51;20.20;77.60
37806;DHT22;25082;50.870;0.022;2023-09-19T14:27:18;20.20;77.50
37806;DHT22;25082;50.870;0.022;2023-09-19T14:29:44;20.20;77.60
37806;DHT22;25082;50.870;0.022;2023-09-19T14:32:10;20.20;77.50
37806;DHT22;25082;50.870;0.022;2023-09-19T14:34:36;20.20;77.50
37806;DHT22;25082;50.870;0.022;2023-09-19T14:37:07;20.20;77.60
37806;DHT22;25082;50.870;0.022;2023-09-19T14:39:33;20.20;77.60
37806;DHT22;25082;50.870;0.022;2023-09-19T14:41:59;20.20;77.60
37806;DHT22;25082;50.870;0.022;2023-09-19T14:44:25;20.20;77.70
37806;DHT22;25082;50.870;0.022;2023-09-19T14:46:50;20.20;77.70
37806;DHT22;25082;50.870;0.022;2023-09-19T14:49:16;20.20;77.70
37806;DHT22;25082;50.870;0.022;2023-09-19T14:51:42;20.20;77.70
37806;DHT22;25082;50.870;0.022;2023-09-19T14:54:13;20.20;77.90
37806;DHT22;25082;50.870;0.022;2023-09-19T14:56:38;20.20;77.80
37806;DHT22;25082;50.870;0.022;2023-09-19T14:59:05;20.20;77.90
37806;DHT22;25082;50.870;0.022;2023-09-19T15:01:32;20.20;77.90
37806;DHT22;25082;50.870;0.022;2023-09-19T15:03:58;20.10;77.80
37806;DHT22;25082;50.870;0.022;2023-09-19T15:06:23;20.20;77.90
37806;DHT22;25082;50.870;0.022;2023-09-19T15:08:49;20.20;77.90
37806;DHT22;25082;50.870;0.022;2023-09-19T15:11:18;20.20;77.90
37806;DHT22;25082;50.870;0.022;2023-09-19T15:13:46;20.20;78.00
37806;DHT22;25082;50.870;0.022;2023-09-19T15:16:12;20.20;78.10
37806;DHT22;25082;50.870;0.022;2023-09-19T15:18:40;20.20;78.00
37806;DHT22;25082;50.870;0.022;2023-09-19T15:21:08;20.20;77.90
37806;DHT22;25082;50.870;0.022;2023-09-19T15:23:35;20.20;77.90
37806;DHT22;25082;50.870;0.022;2023-09-19T15:26:03;20.20;77.80
37806;DHT22;25082;50.870;0.022;2023-09-19T15:28:29;20.20;77.90
37806;DHT22;25082;50.870;0.022;2023-09-19T15:31:08;20.20;77.80
37806;DHT22;25082;50.870;0.022;2023-09-19T15:33:35;20.20;77.80
37806;DHT22;25082;50.870;0.022;2023-09-19T15:36:14;20.20;77.70
37806;DHT22;25082;50.870;0.022;2023-09-19T15:41:17;20.20;77.80
37806;DHT22;25082;50.870;0.022;2023-09-19T15:43:43;20.20;77.70
37806;DHT22;25082;50.870;0.022;2023-09-19T15:46:08;20.20;77.80
37806;DHT22;25082;50.870;0.022;2023-09-19T15:48:34;20.20;77.70
37806;DHT22;25082;50.870;0.022;2023-09-19T15:51:04;20.20;77.80
37806;DHT22;25082;50.870;0.022;2023-09-19T15:56:07;20.20;77.80
37806;DHT22;25082;50.870;0.022;2023-09-19T15:58:32;20.20;77.80
37806;DHT22;25082;50.870;0.022;2023-09-19T16:01:05;20.20;77.80
37806;DHT22;25082;50.870;0.022;2023-09-19T16:03:35;20.20;77.80
37806;DHT22;25082;50.870;0.022;2023-09-19T16:06:01;20.30;77.90
37806;DHT22;25082;50.870;0.022;2023-09-19T16:08:27;20.20;77.90
37806;DHT22;25082;50.870;0.022;2023-09-19T16:10:52;20.30;78.00
37806;DHT22;25082;50.870;0.022;2023-09-19T16:13:18;20.20;77.90
37806;DHT22;25082;50.870;0.022;2023-09-19T16:15:44;20.20;78.00
37806;DHT22;25082;50.870;0.022;2023-09-19T16:18:10;20.20;77.90
37806;DHT22;25082;50.870;0.022;2023-09-19T16:20:35;20.20;78.00
37806;DHT22;25082;50.870;0.022;2023-09-19T16:23:04;20.30;78.10
37806;DHT22;25082;50.870;0.022;2023-09-19T16:25:29;20.30;78.10
37806;DHT22;25082;50.870;0.022;2023-09-19T16:27:55;20.20;78.00
37806;DHT22;25082;50.870;0.022;2023-09-19T16:30:21;20.30;78.00
37806;DHT22;25082;50.870;0.022;2023-09-19T16:32:47;20.20;78.00
37806;DHT22;25082;50.870;0.022;2023-09-19T16:35:13;20.30;78.40
37806;DHT22;25082;50.870;0.022;2023-09-19T16:37:39;20.30;78.30
37806;DHT22;25082;50.870;0.022;2023-09-19T16:40:05;20.30;78.20